Time,TemperatureF,DewpointF,PressureIn,WindDirection,WindDirectionDegrees,WindSpeedMPH,WindSpeedGustMPH,Humidity,HourlyPrecipIn,Conditions,Clouds,dailyrainin,SolarRadiationWatts/m^2,SoftwareType,DateUTC
2013-03-28 00:00:00,46.1,41.8,30.25,North,3,0.0,0.0,85,0.00,,---,0.00,0.00,VWS V14.00,2013-03-28 04:00:00,
2013-03-28 00:30:00,45.8,41.5,30.24,North,3,0.0,0.0,85,0.00,,---,0.00,0.00,VWS V14.00,2013-03-28 04:30:00,
2013-03-28 01:00:00,45.2,41.3,30.25,North,3,0.0,0.0,86,0.00,,---,0.00,0.00,VWS V14.00,2013-03-28 05:00:00,
2013-03-28 01:30:00,45.1,41.2,30.24,North,3,0.0,0.0,86,0.00,,---,0.00,0.00,VWS V14.00,2013-03-28 05:30:00,
2013-03-28 02:00:00,44.9,41.3,30.24,North,3,0.0,0.0,87,0.00,,---,0.00,0.00,VWS V14.00,2013-03-28 06:00:00,
2013-03-28 02:30:00,44.3,40.4,30.24,North,3,0.0,2.0,86,0.00,,---,0.00,0.00,VWS V14.00,2013-03-28 06:30:00,
2013-03-28 03:00:00,44.1,40.5,30.24,North,3,0.0,1.0,87,0.00,,---,0.00,0.00,VWS V14.00,2013-03-28 07:00:00,
2013-03-28 03:30:00,44.0,40.7,30.23,North,3,0.0,3.0,88,0.00,,---,0.00,0.00,VWS V14.00,2013-03-28 07:30:00,
2013-03-28 04:00:00,43.9,40.3,30.23,North,3,0.0,1.0,87,0.00,,---,0.00,0.00,VWS V14.00,2013-03-28 08:00:00,
2013-03-28 04:30:00,43.3,39.7,30.23,North,3,0.0,1.0,87,0.00,,---,0.00,0.00,VWS V14.00,2013-03-28 08:30:00,
2013-03-28 05:00:00,43.3,39.7,30.23,North,3,0.0,3.0,87,0.00,,---,0.00,0.00,VWS V14.00,2013-03-28 09:00:00,
2013-03-28 05:30:00,43.4,40.1,30.24,North,3,0.0,2.0,88,0.00,,---,0.00,0.00,VWS V14.00,2013-03-28 09:30:00,
2013-03-28 06:00:00,43.7,40.1,30.24,North,3,0.0,2.0,87,0.00,,---,0.00,0.00,VWS V14.00,2013-03-28 10:00:00,
2013-03-28 06:30:00,44.0,40.4,30.24,North,3,0.0,2.0,87,0.00,,---,0.00,0.00,VWS V14.00,2013-03-28 10:30:00,
2013-03-28 07:00:00,43.9,40.0,30.25,North,3,0.0,1.0,86,0.00,,---,0.00,7.00,VWS V14.00,2013-03-28 11:00:00,
2013-03-28 07:30:00,44.0,40.1,30.25,North,3,0.0,1.0,86,0.00,,---,0.00,63.00,VWS V14.00,2013-03-28 11:30:00,
2013-03-28 08:00:00,45.2,41.3,30.26,North,3,0.0,3.0,86,0.00,,---,0.00,171.00,VWS V14.00,2013-03-28 12:00:00,
2013-03-28 08:30:00,47.8,42.9,30.27,NNW,348,2.0,6.0,83,0.00,,---,0.00,271.00,VWS V14.00,2013-03-28 12:30:00,
2013-03-28 09:00:00,52.1,44.1,30.28,NW,321,0.0,6.0,74,0.00,,---,0.00,394.00,VWS V14.00,2013-03-28 13:00:00,
2013-03-28 09:30:00,55.8,43.8,30.29,WNW,285,1.0,8.0,64,0.00,,---,0.00,501.00,VWS V14.00,2013-03-28 13:30:00,
2013-03-28 10:00:00,59.0,43.8,30.29,West,281,2.0,8.0,57,0.00,,---,0.00,601.00,VWS V14.00,2013-03-28 14:00:00,
2013-03-28 10:30:00,62.8,45.4,30.29,WNW,283,0.0,6.0,53,0.00,,---,0.00,689.00,VWS V14.00,2013-03-28 14:30:00,
2013-03-28 11:00:00,64.0,44.5,30.29,West,281,0.0,7.0,49,0.00,,---,0.00,763.00,VWS V14.00,2013-03-28 15:00:00,
2013-03-28 11:30:00,67.0,45.0,30.29,WNW,292,0.0,5.0,45,0.00,,---,0.00,837.00,VWS V14.00,2013-03-28 15:30:00,
2013-03-28 12:00:00,67.9,44.0,30.28,WNW,292,2.0,5.0,42,0.00,,---,0.00,882.00,VWS V14.00,2013-03-28 16:00:00,
2013-03-28 12:30:00,69.4,44.7,30.27,WNW,295,0.0,5.0,41,0.00,,---,0.00,912.00,VWS V14.00,2013-03-28 16:30:00,
2013-03-28 13:00:00,70.6,44.5,30.26,WNW,298,1.0,4.0,39,0.00,,---,0.00,926.00,VWS V14.00,2013-03-28 17:00:00,
2013-03-28 13:30:00,71.4,43.1,30.25,NW,323,1.0,5.0,36,0.00,,---,0.00,926.00,VWS V14.00,2013-03-28 17:30:00,
2013-03-28 14:00:00,71.8,43.4,30.24,NNW,327,0.0,7.0,36,0.00,,---,0.00,905.00,VWS V14.00,2013-03-28 18:00:00,
2013-03-28 14:30:00,70.7,45.2,30.23,NW,321,4.0,5.0,40,0.00,,---,0.00,838.00,VWS V14.00,2013-03-28 18:30:00,
2013-03-28 15:00:00,68.0,44.1,30.22,North,354,0.0,5.0,42,0.00,,---,0.00,814.00,VWS V14.00,2013-03-28 19:00:00,
2013-03-28 15:30:00,67.7,45.6,30.21,North,2,0.0,7.0,45,0.00,,---,0.00,742.00,VWS V14.00,2013-03-28 19:30:00,
2013-03-28 16:00:00,66.7,45.3,30.21,North,9,3.0,6.0,46,0.00,,---,0.00,663.00,VWS V14.00,2013-03-28 20:00:00,
2013-03-28 16:30:00,65.9,45.7,30.20,North,2,1.0,8.0,48,0.00,,---,0.00,568.00,VWS V14.00,2013-03-28 20:30:00,
2013-03-28 17:00:00,65.2,47.2,30.20,North,2,0.0,7.0,52,0.00,,---,0.00,466.00,VWS V14.00,2013-03-28 21:00:00,
2013-03-28 17:30:00,64.3,47.3,30.21,North,5,0.0,5.0,54,0.00,,---,0.00,352.00,VWS V14.00,2013-03-28 21:30:00,
2013-03-28 18:00:00,63.6,47.6,30.22,North,9,2.0,5.0,56,0.00,,---,0.00,216.00,VWS V14.00,2013-03-28 22:00:00,
2013-03-28 18:30:00,62.7,46.3,30.22,North,9,2.0,5.0,55,0.00,,---,0.00,37.00,VWS V14.00,2013-03-28 22:30:00,
2013-03-28 19:00:00,61.8,45.5,30.23,North,9,0.0,5.0,55,0.00,,---,0.00,18.00,VWS V14.00,2013-03-28 23:00:00,
2013-03-28 19:30:00,60.8,46.0,30.24,North,9,0.0,3.0,58,0.00,,---,0.00,0.00,VWS V14.00,2013-03-28 23:30:00,
2013-03-28 20:00:00,59.9,45.5,30.25,North,9,0.0,0.0,59,0.00,,---,0.00,0.00,VWS V14.00,2013-03-29 00:00:00,
2013-03-28 20:30:00,58.1,46.0,30.25,North,9,0.0,0.0,64,0.00,,---,0.00,0.00,VWS V14.00,2013-03-29 00:30:00,
2013-03-28 21:00:00,56.1,45.7,30.25,North,9,0.0,0.0,68,0.00,,---,0.00,0.00,VWS V14.00,2013-03-29 01:00:00,
2013-03-28 21:30:00,55.0,45.8,30.26,North,9,0.0,0.0,71,0.00,,---,0.00,0.00,VWS V14.00,2013-03-29 01:30:00,
2013-03-28 22:00:00,53.5,46.1,30.27,North,9,0.0,0.0,76,0.00,,---,0.00,0.00,VWS V14.00,2013-03-29 02:00:00,
2013-03-28 22:30:00,52.7,46.0,30.27,North,9,0.0,0.0,78,0.00,,---,0.00,0.00,VWS V14.00,2013-03-29 02:30:00,
2013-03-28 23:00:00,51.7,46.1,30.27,North,9,0.0,0.0,81,0.00,,---,0.00,0.00,VWS V14.00,2013-03-29 03:00:00,
2013-03-28 23:30:00,51.0,46.0,30.27,North,9,0.0,0.0,83,0.00,,---,0.00,0.00,VWS V14.00,2013-03-29 03:30:00,